SHT3096 EGLL-EDDK
Flight info
| Callsign | SHT3096 |
|---|---|
| Flight time | 0h 50m |
| Altitude | 31000 |
| Route | DET L6 DVR UL9 KONAN UL607 SPI T857 DENOV T861 ERUKI T856 DEPOK |
| Aircraft | A320/M-SDE3FGHIRWY/LB1 |
Departure
| Time | 2026-04-26 11:26 |
|---|---|
| Airport | London Heathrow Airport (EGLL) |
Arrival
| Time | 2026-04-26 12:16 |
|---|---|
| Airport | Cologne Bonn Airport (EDDK) |
| Time | Latitude | Longitude | Altitude | Speed | Heading |
|---|---|---|---|---|---|
| 2026-04-26 10:41 | 51.47126 | -0.47715 | 91 ft | 0 kts | 89° |
| 2026-04-26 11:11 | 51.47125 | -0.47717 | 90 ft | 2 kts | 89° |
| 2026-04-26 11:12 | 51.47126 | -0.47757 | 90 ft | 4 kts | 95° |
| 2026-04-26 11:12 | 51.47129 | -0.47800 | 89 ft | 4 kts | 104° |
| 2026-04-26 11:12 | 51.47138 | -0.47841 | 94 ft | 4 kts | 121° |
| 2026-04-26 11:12 | 51.47155 | -0.47868 | 92 ft | 4 kts | 170° |
| 2026-04-26 11:13 | 51.47160 | -0.47870 | 91 ft | 0 kts | 179° |
| 2026-04-26 11:15 | 51.47153 | -0.47870 | 92 ft | 1 kts | 180° |
| 2026-04-26 11:15 | 51.47122 | -0.47870 | 91 ft | 6 kts | 180° |
| 2026-04-26 11:16 | 51.47070 | -0.47869 | 90 ft | 8 kts | 180° |
| 2026-04-26 11:16 | 51.47007 | -0.47870 | 90 ft | 10 kts | 180° |
| 2026-04-26 11:16 | 51.46929 | -0.47871 | 89 ft | 12 kts | 179° |
| 2026-04-26 11:16 | 51.46872 | -0.47870 | 89 ft | 8 kts | 179° |
| 2026-04-26 11:17 | 51.46825 | -0.47869 | 89 ft | 6 kts | 179° |
| 2026-04-26 11:17 | 51.46801 | -0.47869 | 89 ft | 4 kts | 181° |
| 2026-04-26 11:17 | 51.46772 | -0.47877 | 89 ft | 5 kts | 199° |
| 2026-04-26 11:17 | 51.46748 | -0.47926 | 90 ft | 7 kts | 251° |
| 2026-04-26 11:18 | 51.46743 | -0.48016 | 89 ft | 9 kts | 270° |
| 2026-04-26 11:18 | 51.46743 | -0.48085 | 90 ft | 0 kts | 269° |
| 2026-04-26 11:20 | 51.46743 | -0.48086 | 90 ft | 0 kts | 269° |
| 2026-04-26 11:20 | 51.46743 | -0.48092 | 90 ft | 1 kts | 269° |
| 2026-04-26 11:20 | 51.46741 | -0.48140 | 91 ft | 6 kts | 263° |
| 2026-04-26 11:20 | 51.46725 | -0.48189 | 95 ft | 5 kts | 227° |
| 2026-04-26 11:21 | 51.46686 | -0.48214 | 95 ft | 7 kts | 188° |
| 2026-04-26 11:21 | 51.46630 | -0.48214 | 93 ft | 8 kts | 179° |
| 2026-04-26 11:21 | 51.46603 | -0.48214 | 93 ft | 0 kts | 179° |
| 2026-04-26 11:24 | 51.46587 | -0.48214 | 93 ft | 6 kts | 180° |
| 2026-04-26 11:24 | 51.46531 | -0.48213 | 93 ft | 10 kts | 178° |
| 2026-04-26 11:25 | 51.46480 | -0.48140 | 92 ft | 13 kts | 101° |
| 2026-04-26 11:25 | 51.46480 | -0.47954 | 90 ft | 31 kts | 90° |
| 2026-04-26 11:25 | 51.46482 | -0.47229 | 91 ft | 95 kts | 89° |
| 2026-04-26 11:25 | 51.46487 | -0.45901 | 89 ft | 141 kts | 89° |
| 2026-04-26 11:26 | 51.46488 | -0.44196 | 435 ft | 155 kts | 91° |
| 2026-04-26 11:26 | 51.46487 | -0.42452 | 1141 ft | 156 kts | 93° |
| 2026-04-26 11:26 | 51.46184 | -0.40740 | 1636 ft | 171 kts | 123° |
| 2026-04-26 11:26 | 51.45391 | -0.39142 | 2011 ft | 195 kts | 129° |
| 2026-04-26 11:27 | 51.44478 | -0.37354 | 2510 ft | 220 kts | 125° |
| 2026-04-26 11:27 | 51.43760 | -0.35097 | 3008 ft | 242 kts | 108° |
| 2026-04-26 11:27 | 51.43361 | -0.32398 | 3804 ft | 251 kts | 103° |
| 2026-04-26 11:27 | 51.42972 | -0.29645 | 4675 ft | 257 kts | 103° |
| 2026-04-26 11:28 | 51.42564 | -0.26813 | 5525 ft | 262 kts | 103° |
| 2026-04-26 11:28 | 51.42157 | -0.23923 | 5898 ft | 268 kts | 103° |
| 2026-04-26 11:28 | 51.41888 | -0.21970 | 6077 ft | 267 kts | 103° |
| 2026-04-26 11:28 | 51.41359 | -0.18093 | 6300 ft | 271 kts | 103° |
| 2026-04-26 11:29 | 51.41085 | -0.16085 | 6320 ft | 272 kts | 103° |
| 2026-04-26 11:29 | 51.40682 | -0.13132 | 6320 ft | 271 kts | 102° |
| 2026-04-26 11:29 | 51.40279 | -0.10178 | 6320 ft | 271 kts | 103° |
| 2026-04-26 11:29 | 51.39743 | -0.06282 | 6320 ft | 271 kts | 103° |
| 2026-04-26 11:30 | 51.39469 | -0.04282 | 6322 ft | 271 kts | 103° |
| 2026-04-26 11:30 | 51.39068 | -0.01382 | 6931 ft | 256 kts | 103° |
| 2026-04-26 11:30 | 51.38679 | 0.01410 | 7769 ft | 265 kts | 103° |
| 2026-04-26 11:30 | 51.38268 | 0.04349 | 8305 ft | 279 kts | 103° |
| 2026-04-26 11:31 | 51.37837 | 0.07418 | 9087 ft | 285 kts | 103° |
| 2026-04-26 11:31 | 51.37399 | 0.10540 | 9881 ft | 290 kts | 103° |
| 2026-04-26 11:31 | 51.36953 | 0.13702 | 10595 ft | 296 kts | 104° |
| 2026-04-26 11:31 | 51.36481 | 0.17048 | 10853 ft | 319 kts | 103° |
| 2026-04-26 11:32 | 51.35977 | 0.20631 | 11115 ft | 338 kts | 103° |
| 2026-04-26 11:32 | 51.35454 | 0.24340 | 11714 ft | 345 kts | 104° |
| 2026-04-26 11:32 | 51.34921 | 0.28113 | 12341 ft | 351 kts | 104° |
| 2026-04-26 11:32 | 51.34376 | 0.31953 | 12981 ft | 355 kts | 103° |
| 2026-04-26 11:33 | 51.33825 | 0.35828 | 13662 ft | 359 kts | 103° |
| 2026-04-26 11:33 | 51.33267 | 0.39739 | 14301 ft | 363 kts | 104° |
| 2026-04-26 11:33 | 51.32698 | 0.43705 | 14814 ft | 366 kts | 104° |
| 2026-04-26 11:33 | 51.32128 | 0.47675 | 15389 ft | 370 kts | 104° |
| 2026-04-26 11:34 | 51.31547 | 0.51704 | 15968 ft | 373 kts | 104° |
| 2026-04-26 11:34 | 51.30962 | 0.55767 | 16537 ft | 377 kts | 104° |
| 2026-04-26 11:34 | 51.30370 | 0.59871 | 17110 ft | 380 kts | 104° |
| 2026-04-26 11:34 | 51.29711 | 0.63987 | 17673 ft | 384 kts | 106° |
| 2026-04-26 11:35 | 51.28977 | 0.68108 | 18233 ft | 387 kts | 108° |
| 2026-04-26 11:35 | 51.28198 | 0.72250 | 18763 ft | 391 kts | 108° |
| 2026-04-26 11:35 | 51.27397 | 0.76425 | 19267 ft | 395 kts | 108° |
| 2026-04-26 11:35 | 51.26594 | 0.80630 | 19787 ft | 398 kts | 108° |
| 2026-04-26 11:36 | 51.25794 | 0.84877 | 20312 ft | 401 kts | 107° |
| 2026-04-26 11:36 | 51.24997 | 0.89159 | 20820 ft | 404 kts | 107° |
| 2026-04-26 11:36 | 51.24196 | 0.93479 | 21306 ft | 407 kts | 107° |
| 2026-04-26 11:36 | 51.23401 | 0.97774 | 21803 ft | 410 kts | 107° |
| 2026-04-26 11:37 | 51.22590 | 1.02153 | 22261 ft | 413 kts | 107° |
| 2026-04-26 11:37 | 51.21772 | 1.06567 | 22719 ft | 416 kts | 107° |
| 2026-04-26 11:37 | 51.20947 | 1.11007 | 23184 ft | 419 kts | 107° |
| 2026-04-26 11:37 | 51.20107 | 1.15503 | 23641 ft | 422 kts | 107° |
| 2026-04-26 11:38 | 51.19263 | 1.20004 | 24061 ft | 425 kts | 107° |
| 2026-04-26 11:38 | 51.18411 | 1.24538 | 24434 ft | 428 kts | 107° |
| 2026-04-26 11:38 | 51.17551 | 1.29097 | 24809 ft | 431 kts | 107° |
| 2026-04-26 11:38 | 51.16697 | 1.33691 | 25176 ft | 434 kts | 104° |
| 2026-04-26 11:39 | 51.16149 | 1.38428 | 25529 ft | 437 kts | 95° |
| 2026-04-26 11:39 | 51.15912 | 1.43265 | 25899 ft | 439 kts | 94° |
| 2026-04-26 11:39 | 51.15683 | 1.48127 | 26253 ft | 442 kts | 94° |
| 2026-04-26 11:39 | 51.15450 | 1.53025 | 26601 ft | 445 kts | 94° |
| 2026-04-26 11:40 | 51.15214 | 1.57948 | 26947 ft | 447 kts | 94° |
| 2026-04-26 11:40 | 51.14973 | 1.62890 | 27295 ft | 450 kts | 94° |
| 2026-04-26 11:40 | 51.14728 | 1.67879 | 27640 ft | 452 kts | 94° |
| 2026-04-26 11:40 | 51.14476 | 1.72880 | 27986 ft | 455 kts | 94° |
| 2026-04-26 11:41 | 51.14219 | 1.77921 | 28336 ft | 457 kts | 94° |
| 2026-04-26 11:42 | 51.12347 | 2.13834 | 30737 ft | 472 kts | 93° |
| 2026-04-26 11:43 | 51.12068 | 2.19032 | 31138 ft | 472 kts | 93° |
| 2026-04-26 11:43 | 51.11784 | 2.24245 | 31301 ft | 472 kts | 93° |
| 2026-04-26 11:43 | 51.11215 | 2.34498 | 31336 ft | 461 kts | 93° |
| 2026-04-26 11:44 | 51.10650 | 2.44644 | 31328 ft | 459 kts | 94° |
| 2026-04-26 11:44 | 51.09783 | 2.54659 | 31335 ft | 460 kts | 98° |
| 2026-04-26 11:45 | 51.08583 | 2.64687 | 31332 ft | 460 kts | 99° |
| 2026-04-26 11:45 | 51.07380 | 2.74672 | 31330 ft | 460 kts | 99° |
| 2026-04-26 11:46 | 51.06253 | 2.84690 | 31361 ft | 460 kts | 98° |
| 2026-04-26 11:46 | 51.05156 | 2.94706 | 31367 ft | 459 kts | 98° |
| 2026-04-26 11:47 | 51.04043 | 3.04710 | 31354 ft | 459 kts | 98° |
| 2026-04-26 11:47 | 51.02902 | 3.14676 | 31342 ft | 459 kts | 98° |
| 2026-04-26 11:48 | 51.01751 | 3.24651 | 31341 ft | 459 kts | 98° |
| 2026-04-26 11:48 | 51.00603 | 3.34634 | 31352 ft | 459 kts | 98° |
| 2026-04-26 11:49 | 50.99450 | 3.44601 | 31341 ft | 458 kts | 98° |
| 2026-04-26 11:49 | 50.98294 | 3.54463 | 31338 ft | 458 kts | 98° |
| 2026-04-26 11:50 | 50.97114 | 3.64416 | 31333 ft | 458 kts | 98° |
| 2026-04-26 11:50 | 50.95935 | 3.74346 | 31334 ft | 458 kts | 98° |
| 2026-04-26 11:51 | 50.94744 | 3.84274 | 31347 ft | 458 kts | 99° |
| 2026-04-26 11:51 | 50.93541 | 3.94177 | 31345 ft | 457 kts | 99° |
| 2026-04-26 11:52 | 50.92538 | 4.02392 | 31341 ft | 457 kts | 99° |
| 2026-04-26 11:52 | 50.91123 | 4.13949 | 31341 ft | 456 kts | 99° |
| 2026-04-26 11:53 | 50.89911 | 4.23829 | 31338 ft | 456 kts | 99° |
| 2026-04-26 11:54 | 50.88069 | 4.38569 | 31338 ft | 456 kts | 99° |
| 2026-04-26 11:54 | 50.86820 | 4.48421 | 31338 ft | 456 kts | 99° |
| 2026-04-26 11:55 | 50.85568 | 4.58267 | 31336 ft | 456 kts | 99° |
| 2026-04-26 11:55 | 50.84317 | 4.68130 | 31337 ft | 456 kts | 99° |
| 2026-04-26 11:56 | 50.83064 | 4.77898 | 31007 ft | 446 kts | 99° |
| 2026-04-26 11:56 | 50.82442 | 4.82687 | 30756 ft | 442 kts | 99° |
| 2026-04-26 11:56 | 50.81830 | 4.87368 | 30516 ft | 440 kts | 99° |
| 2026-04-26 11:56 | 50.81206 | 4.92151 | 30251 ft | 438 kts | 99° |
| 2026-04-26 11:57 | 50.80601 | 4.96788 | 29965 ft | 436 kts | 99° |
| 2026-04-26 11:57 | 50.79992 | 5.01458 | 29681 ft | 434 kts | 99° |
| 2026-04-26 11:57 | 50.79377 | 5.06123 | 29397 ft | 432 kts | 99° |
| 2026-04-26 11:57 | 50.78765 | 5.10767 | 29116 ft | 430 kts | 99° |
| 2026-04-26 11:58 | 50.78154 | 5.15379 | 28827 ft | 428 kts | 100° |
| 2026-04-26 11:58 | 50.77541 | 5.19971 | 28589 ft | 426 kts | 99° |
| 2026-04-26 11:58 | 50.76931 | 5.24530 | 28202 ft | 421 kts | 99° |
| 2026-04-26 11:58 | 50.76329 | 5.29048 | 27708 ft | 419 kts | 99° |
| 2026-04-26 11:59 | 50.75729 | 5.33538 | 27246 ft | 416 kts | 99° |
| 2026-04-26 11:59 | 50.75134 | 5.37969 | 26792 ft | 413 kts | 99° |
| 2026-04-26 11:59 | 50.74534 | 5.42414 | 26346 ft | 411 kts | 99° |
| 2026-04-26 11:59 | 50.73939 | 5.46811 | 25909 ft | 409 kts | 100° |
| 2026-04-26 12:00 | 50.73346 | 5.51193 | 25469 ft | 407 kts | 100° |
| 2026-04-26 12:00 | 50.72751 | 5.55550 | 25038 ft | 406 kts | 100° |
| 2026-04-26 12:00 | 50.72157 | 5.59905 | 24601 ft | 404 kts | 100° |
| 2026-04-26 12:00 | 50.71566 | 5.64230 | 24176 ft | 402 kts | 101° |
| 2026-04-26 12:01 | 50.70974 | 5.68538 | 23692 ft | 401 kts | 101° |
| 2026-04-26 12:01 | 50.70384 | 5.72816 | 23214 ft | 398 kts | 101° |
| 2026-04-26 12:01 | 50.69798 | 5.77069 | 22736 ft | 395 kts | 101° |
| 2026-04-26 12:01 | 50.69215 | 5.81293 | 22269 ft | 392 kts | 101° |
| 2026-04-26 12:02 | 50.68636 | 5.85474 | 21805 ft | 389 kts | 101° |
| 2026-04-26 12:02 | 50.68250 | 5.88240 | 21484 ft | 387 kts | 101° |
| 2026-04-26 12:02 | 50.67482 | 5.93712 | 20855 ft | 384 kts | 102° |
| 2026-04-26 12:02 | 50.66903 | 5.97806 | 20379 ft | 382 kts | 102° |
| 2026-04-26 12:03 | 50.66333 | 6.01875 | 19898 ft | 379 kts | 102° |
| 2026-04-26 12:03 | 50.65769 | 6.05923 | 19436 ft | 377 kts | 102° |
| 2026-04-26 12:03 | 50.65201 | 6.09956 | 18962 ft | 376 kts | 102° |
| 2026-04-26 12:03 | 50.64630 | 6.13958 | 18484 ft | 374 kts | 102° |
| 2026-04-26 12:04 | 50.64063 | 6.17919 | 18266 ft | 364 kts | 102° |
| 2026-04-26 12:04 | 50.63596 | 6.21770 | 17918 ft | 358 kts | 96° |
| 2026-04-26 12:04 | 50.63378 | 6.25746 | 17046 ft | 368 kts | 94° |
| 2026-04-26 12:04 | 50.63188 | 6.29727 | 16656 ft | 362 kts | 94° |
| 2026-04-26 12:05 | 50.63007 | 6.33668 | 16213 ft | 359 kts | 93° |
| 2026-04-26 12:05 | 50.62826 | 6.37571 | 15765 ft | 356 kts | 94° |
| 2026-04-26 12:05 | 50.62639 | 6.41442 | 15319 ft | 354 kts | 94° |
| 2026-04-26 12:05 | 50.62444 | 6.45303 | 14875 ft | 353 kts | 94° |
| 2026-04-26 12:06 | 50.62242 | 6.49139 | 14443 ft | 351 kts | 94° |
| 2026-04-26 12:06 | 50.62036 | 6.52963 | 13979 ft | 350 kts | 94° |
| 2026-04-26 12:06 | 50.61831 | 6.56757 | 13514 ft | 347 kts | 93° |
| 2026-04-26 12:06 | 50.61624 | 6.60528 | 13080 ft | 344 kts | 93° |
| 2026-04-26 12:07 | 50.61419 | 6.64283 | 12693 ft | 340 kts | 93° |
| 2026-04-26 12:07 | 50.61224 | 6.67935 | 12561 ft | 329 kts | 91° |
| 2026-04-26 12:07 | 50.61360 | 6.71437 | 12430 ft | 315 kts | 75° |
| 2026-04-26 12:07 | 50.62070 | 6.74618 | 12271 ft | 302 kts | 59° |
| 2026-04-26 12:08 | 50.63240 | 6.77310 | 12002 ft | 295 kts | 45° |
| 2026-04-26 12:08 | 50.64771 | 6.79403 | 11690 ft | 289 kts | 31° |
| 2026-04-26 12:08 | 50.66442 | 6.81149 | 11365 ft | 288 kts | 31° |
| 2026-04-26 12:08 | 50.68104 | 6.82893 | 11053 ft | 286 kts | 31° |
| 2026-04-26 12:09 | 50.69660 | 6.84833 | 10755 ft | 287 kts | 44° |
| 2026-04-26 12:09 | 50.70788 | 6.87393 | 10452 ft | 290 kts | 61° |
| 2026-04-26 12:09 | 50.71383 | 6.90428 | 10142 ft | 293 kts | 79° |
| 2026-04-26 12:09 | 50.71513 | 6.93652 | 9789 ft | 294 kts | 84° |
| 2026-04-26 12:10 | 50.71615 | 6.96872 | 9447 ft | 292 kts | 84° |
| 2026-04-26 12:10 | 50.71720 | 7.00067 | 9119 ft | 291 kts | 84° |
| 2026-04-26 12:10 | 50.71827 | 7.03237 | 8801 ft | 289 kts | 84° |
| 2026-04-26 12:10 | 50.71936 | 7.06423 | 8304 ft | 293 kts | 85° |
| 2026-04-26 12:11 | 50.72053 | 7.09715 | 7374 ft | 306 kts | 85° |
| 2026-04-26 12:11 | 50.72167 | 7.13069 | 6838 ft | 299 kts | 85° |
| 2026-04-26 12:11 | 50.72271 | 7.16271 | 6345 ft | 290 kts | 85° |
| 2026-04-26 12:11 | 50.72374 | 7.19465 | 5548 ft | 292 kts | 86° |
| 2026-04-26 12:12 | 50.72481 | 7.22742 | 4743 ft | 305 kts | 86° |
| 2026-04-26 12:12 | 50.72600 | 7.26040 | 3969 ft | 303 kts | 83° |
| 2026-04-26 12:12 | 50.73293 | 7.29019 | 3670 ft | 281 kts | 51° |
| 2026-04-26 12:12 | 50.74246 | 7.30353 | 3583 ft | 265 kts | 28° |
| 2026-04-26 12:13 | 50.76526 | 7.30848 | 2862 ft | 245 kts | 340° |
| 2026-04-26 12:13 | 50.77779 | 7.29319 | 2544 ft | 221 kts | 299° |
| 2026-04-26 12:13 | 50.78306 | 7.27164 | 2257 ft | 204 kts | 292° |
| 2026-04-26 12:13 | 50.78804 | 7.25955 | 2107 ft | 191 kts | 320° |
| 2026-04-26 12:14 | 50.80108 | 7.24392 | 1825 ft | 161 kts | 318° |
| 2026-04-26 12:14 | 50.80892 | 7.23259 | 1585 ft | 147 kts | 317° |
| 2026-04-26 12:14 | 50.81384 | 7.22547 | 1447 ft | 143 kts | 318° |
| 2026-04-26 12:14 | 50.82111 | 7.21495 | 1270 ft | 140 kts | 318° |
| 2026-04-26 12:15 | 50.82828 | 7.20453 | 1077 ft | 140 kts | 318° |
| 2026-04-26 12:15 | 50.83544 | 7.19427 | 887 ft | 139 kts | 319° |
| 2026-04-26 12:15 | 50.84258 | 7.18393 | 660 ft | 139 kts | 317° |
| 2026-04-26 12:15 | 50.84970 | 7.17357 | 489 ft | 138 kts | 318° |
| 2026-04-26 12:16 | 50.85683 | 7.16336 | 349 ft | 138 kts | 318° |
| 2026-04-26 12:16 | 50.86336 | 7.15387 | 272 ft | 107 kts | 317° |
| 2026-04-26 12:16 | 50.86758 | 7.14778 | 257 ft | 57 kts | 317° |
| 2026-04-26 12:16 | 50.86949 | 7.14498 | 257 ft | 29 kts | 318° |
| 2026-04-26 12:17 | 50.87100 | 7.14279 | 258 ft | 30 kts | 317° |
| 2026-04-26 12:17 | 50.87244 | 7.14062 | 254 ft | 18 kts | 307° |
| 2026-04-26 12:17 | 50.87288 | 7.13906 | 251 ft | 18 kts | 285° |
| 2026-04-26 12:17 | 50.87311 | 7.13759 | 248 ft | 8 kts | 282° |
| 2026-04-26 12:18 | 50.87323 | 7.13649 | 245 ft | 13 kts | 279° |
| 2026-04-26 12:18 | 50.87340 | 7.13499 | 237 ft | 9 kts | 281° |
| 2026-04-26 12:18 | 50.87354 | 7.13380 | 239 ft | 13 kts | 280° |
| 2026-04-26 12:18 | 50.87397 | 7.13235 | 232 ft | 14 kts | 316° |
| 2026-04-26 12:19 | 50.87456 | 7.13151 | 232 ft | 11 kts | 317° |
| 2026-04-26 12:19 | 50.87521 | 7.13057 | 232 ft | 13 kts | 317° |
| 2026-04-26 12:19 | 50.87579 | 7.12973 | 230 ft | 11 kts | 317° |
| 2026-04-26 12:19 | 50.87629 | 7.12903 | 230 ft | 8 kts | 316° |
| 2026-04-26 12:20 | 50.87628 | 7.12842 | 230 ft | 6 kts | 238° |
| 2026-04-26 12:20 | 50.87600 | 7.12792 | 230 ft | 5 kts | 225° |
| 2026-04-26 12:20 | 50.87586 | 7.12769 | 230 ft | 2 kts | 226° |
| 2026-04-26 12:20 | 50.87583 | 7.12764 | 230 ft | 0 kts | 227° |